sensor_id;sensor_type;location;lat;lon;timestamp;temperature;humidity
80282;DHT22;69586;51.890;-8.458;2024-03-17T00:01:04;14.80;68.20
80282;DHT22;69586;51.890;-8.458;2024-03-17T00:03:31;14.80;68.20
80282;DHT22;69586;51.890;-8.458;2024-03-17T00:05:57;14.80;68.20
80282;DHT22;69586;51.890;-8.458;2024-03-17T00:08:24;14.80;68.10
80282;DHT22;69586;51.890;-8.458;2024-03-17T00:10:51;14.80;68.00
80282;DHT22;69586;51.890;-8.458;2024-03-17T00:13:17;14.80;68.10
80282;DHT22;69586;51.890;-8.458;2024-03-17T00:15:43;14.80;68.00
80282;DHT22;69586;51.890;-8.458;2024-03-17T00:18:12;14.80;68.00
80282;DHT22;69586;51.890;-8.458;2024-03-17T00:20:38;14.80;68.00
80282;DHT22;69586;51.890;-8.458;2024-03-17T00:23:06;14.80;68.00
80282;DHT22;69586;51.890;-8.458;2024-03-17T00:25:33;14.80;68.00
80282;DHT22;69586;51.890;-8.458;2024-03-17T00:28:00;14.80;68.00
80282;DHT22;69586;51.890;-8.458;2024-03-17T00:30:26;14.80;68.00
80282;DHT22;69586;51.890;-8.458;2024-03-17T00:32:52;14.80;68.00
80282;DHT22;69586;51.890;-8.458;2024-03-17T00:35:18;14.80;68.00
80282;DHT22;69586;51.890;-8.458;2024-03-17T00:37:47;14.80;68.10
80282;DHT22;69586;51.890;-8.458;2024-03-17T00:40:13;14.80;68.10
80282;DHT22;69586;51.890;-8.458;2024-03-17T00:42:39;14.80;68.10
80282;DHT22;69586;51.890;-8.458;2024-03-17T00:45:06;14.80;68.20
80282;DHT22;69586;51.890;-8.458;2024-03-17T00:47:33;14.80;68.30
80282;DHT22;69586;51.890;-8.458;2024-03-17T00:49:58;14.80;68.30
80282;DHT22;69586;51.890;-8.458;2024-03-17T00:52:24;14.80;68.30
80282;DHT22;69586;51.890;-8.458;2024-03-17T00:54:50;14.80;68.40
80282;DHT22;69586;51.890;-8.458;2024-03-17T00:57:16;14.80;68.50
80282;DHT22;69586;51.890;-8.458;2024-03-17T00:59:42;14.80;68.50
80282;DHT22;69586;51.890;-8.458;2024-03-17T01:02:11;14.80;68.50
80282;DHT22;69586;51.890;-8.458;2024-03-17T01:04:39;14.70;68.70
80282;DHT22;69586;51.890;-8.458;2024-03-17T01:07:05;14.70;68.70
80282;DHT22;69586;51.890;-8.458;2024-03-17T01:09:31;14.70;68.90
80282;DHT22;69586;51.890;-8.458;2024-03-17T01:11:57;14.70;68.90
80282;DHT22;69586;51.890;-8.458;2024-03-17T01:14:22;14.70;69.00
80282;DHT22;69586;51.890;-8.458;2024-03-17T01:16:50;14.70;69.00
80282;DHT22;69586;51.890;-8.458;2024-03-17T01:19:16;14.70;69.10
80282;DHT22;69586;51.890;-8.458;2024-03-17T01:21:42;14.70;69.10
80282;DHT22;69586;51.890;-8.458;2024-03-17T01:24:08;14.60;69.30
80282;DHT22;69586;51.890;-8.458;2024-03-17T01:26:34;14.60;69.30
80282;DHT22;69586;51.890;-8.458;2024-03-17T01:29:00;14.60;69.30
80282;DHT22;69586;51.890;-8.458;2024-03-17T01:31:27;14.70;69.20
80282;DHT22;69586;51.890;-8.458;2024-03-17T01:33:53;14.60;69.20
80282;DHT22;69586;51.890;-8.458;2024-03-17T01:36:18;14.60;69.30
80282;DHT22;69586;51.890;-8.458;2024-03-17T01:38:44;14.70;69.20
80282;DHT22;69586;51.890;-8.458;2024-03-17T01:41:10;14.60;69.30
80282;DHT22;69586;51.890;-8.458;2024-03-17T01:43:36;14.60;69.30
80282;DHT22;69586;51.890;-8.458;2024-03-17T01:46:02;14.60;69.40
80282;DHT22;69586;51.890;-8.458;2024-03-17T01:48:28;14.60;69.40
80282;DHT22;69586;51.890;-8.458;2024-03-17T01:50:55;14.60;69.30
80282;DHT22;69586;51.890;-8.458;2024-03-17T01:53:22;14.60;69.30
80282;DHT22;69586;51.890;-8.458;2024-03-17T01:55:56;14.60;69.30
80282;DHT22;69586;51.890;-8.458;2024-03-17T01:58:25;14.60;69.40
80282;DHT22;69586;51.890;-8.458;2024-03-17T02:00:51;14.60;69.40
80282;DHT22;69586;51.890;-8.458;2024-03-17T02:03:17;14.60;69.40
80282;DHT22;69586;51.890;-8.458;2024-03-17T02:05:44;14.60;69.30
80282;DHT22;69586;51.890;-8.458;2024-03-17T02:08:10;14.70;69.30
80282;DHT22;69586;51.890;-8.458;2024-03-17T02:10:37;14.70;69.10
80282;DHT22;69586;51.890;-8.458;2024-03-17T02:13:03;14.70;69.10
80282;DHT22;69586;51.890;-8.458;2024-03-17T02:15:32;14.70;69.10
80282;DHT22;69586;51.890;-8.458;2024-03-17T02:17:59;14.70;69.10
80282;DHT22;69586;51.890;-8.458;2024-03-17T02:20:25;14.70;69.10
80282;DHT22;69586;51.890;-8.458;2024-03-17T02:23:11;14.70;69.10
80282;DHT22;69586;51.890;-8.458;2024-03-17T02:25:37;14.70;69.10
80282;DHT22;69586;51.890;-8.458;2024-03-17T02:28:03;14.70;69.20
80282;DHT22;69586;51.890;-8.458;2024-03-17T02:30:30;14.70;69.20
80282;DHT22;69586;51.890;-8.458;2024-03-17T02:32:56;14.60;69.20
80282;DHT22;69586;51.890;-8.458;2024-03-17T02:35:23;14.60;69.30
80282;DHT22;69586;51.890;-8.458;2024-03-17T02:37:48;14.60;69.30
80282;DHT22;69586;51.890;-8.458;2024-03-17T02:40:14;14.60;69.20
80282;DHT22;69586;51.890;-8.458;2024-03-17T02:42:41;14.60;69.20
80282;DHT22;69586;51.890;-8.458;2024-03-17T02:45:08;14.70;69.20
80282;DHT22;69586;51.890;-8.458;2024-03-17T02:47:34;14.70;69.20
80282;DHT22;69586;51.890;-8.458;2024-03-17T02:50:01;14.70;69.30
80282;DHT22;69586;51.890;-8.458;2024-03-17T02:52:27;14.70;69.20
80282;DHT22;69586;51.890;-8.458;2024-03-17T02:54:53;14.70;69.10
80282;DHT22;69586;51.890;-8.458;2024-03-17T02:57:22;14.70;69.20
80282;DHT22;69586;51.890;-8.458;2024-03-17T02:59:50;14.70;69.10
80282;DHT22;69586;51.890;-8.458;2024-03-17T03:02:17;14.60;69.30
80282;DHT22;69586;51.890;-8.458;2024-03-17T03:04:43;14.70;69.20
80282;DHT22;69586;51.890;-8.458;2024-03-17T03:07:09;14.60;69.30
80282;DHT22;69586;51.890;-8.458;2024-03-17T03:09:34;14.60;69.30
80282;DHT22;69586;51.890;-8.458;2024-03-17T03:12:00;14.60;69.40
80282;DHT22;69586;51.890;-8.458;2024-03-17T03:14:29;14.60;69.50
80282;DHT22;69586;51.890;-8.458;2024-03-17T03:16:55;14.60;69.50
80282;DHT22;69586;51.890;-8.458;2024-03-17T03:19:21;14.60;69.50
80282;DHT22;69586;51.890;-8.458;2024-03-17T03:21:47;14.60;69.50
80282;DHT22;69586;51.890;-8.458;2024-03-17T03:24:16;14.60;69.50
80282;DHT22;69586;51.890;-8.458;2024-03-17T03:26:43;14.70;69.40
80282;DHT22;69586;51.890;-8.458;2024-03-17T03:29:09;14.70;69.40
80282;DHT22;69586;51.890;-8.458;2024-03-17T03:31:36;14.70;69.40
80282;DHT22;69586;51.890;-8.458;2024-03-17T03:34:05;14.70;69.40
80282;DHT22;69586;51.890;-8.458;2024-03-17T03:36:34;14.70;69.40
80282;DHT22;69586;51.890;-8.458;2024-03-17T03:39:00;14.70;69.40
80282;DHT22;69586;51.890;-8.458;2024-03-17T03:41:25;14.70;69.30
80282;DHT22;69586;51.890;-8.458;2024-03-17T03:43:52;14.70;69.30
80282;DHT22;69586;51.890;-8.458;2024-03-17T03:46:18;14.70;69.30
80282;DHT22;69586;51.890;-8.458;2024-03-17T03:48:44;14.70;69.10
80282;DHT22;69586;51.890;-8.458;2024-03-17T03:51:10;14.70;69.10
80282;DHT22;69586;51.890;-8.458;2024-03-17T03:53:36;14.70;69.20
80282;DHT22;69586;51.890;-8.458;2024-03-17T03:56:04;14.70;69.20
80282;DHT22;69586;51.890;-8.458;2024-03-17T03:58:36;14.70;69.00
80282;DHT22;69586;51.890;-8.458;2024-03-17T04:03:32;14.80;69.00
80282;DHT22;69586;51.890;-8.458;2024-03-17T04:06:09;14.80;69.00
80282;DHT22;69586;51.890;-8.458;2024-03-17T04:08:36;14.80;68.90
80282;DHT22;69586;51.890;-8.458;2024-03-17T04:11:03;14.80;69.00
80282;DHT22;69586;51.890;-8.458;2024-03-17T04:13:29;14.80;69.00
80282;DHT22;69586;51.890;-8.458;2024-03-17T04:15:56;14.80;68.90
80282;DHT22;69586;51.890;-8.458;2024-03-17T04:18:26;14.70;68.80
80282;DHT22;69586;51.890;-8.458;2024-03-17T04:20:55;14.70;68.90
80282;DHT22;69586;51.890;-8.458;2024-03-17T04:23:22;14.70;68.90
80282;DHT22;69586;51.890;-8.458;2024-03-17T04:25:49;14.70;68.90
80282;DHT22;69586;51.890;-8.458;2024-03-17T04:28:15;14.70;69.00
80282;DHT22;69586;51.890;-8.458;2024-03-17T04:30:41;14.60;69.00
80282;DHT22;69586;51.890;-8.458;2024-03-17T04:33:09;14.60;69.10
80282;DHT22;69586;51.890;-8.458;2024-03-17T04:35:39;14.60;69.20
80282;DHT22;69586;51.890;-8.458;2024-03-17T04:38:05;14.60;69.20
80282;DHT22;69586;51.890;-8.458;2024-03-17T04:40:35;14.50;69.30
80282;DHT22;69586;51.890;-8.458;2024-03-17T04:43:01;14.60;69.30
80282;DHT22;69586;51.890;-8.458;2024-03-17T04:45:27;14.60;69.40
80282;DHT22;69586;51.890;-8.458;2024-03-17T04:47:53;14.60;69.40
80282;DHT22;69586;51.890;-8.458;2024-03-17T04:50:18;14.60;69.20
80282;DHT22;69586;51.890;-8.458;2024-03-17T04:52:44;14.60;69.20
80282;DHT22;69586;51.890;-8.458;2024-03-17T04:55:10;14.60;69.20
80282;DHT22;69586;51.890;-8.458;2024-03-17T04:57:36;14.60;69.20
80282;DHT22;69586;51.890;-8.458;2024-03-17T05:00:02;14.60;69.10
80282;DHT22;69586;51.890;-8.458;2024-03-17T05:02:32;14.60;69.00
80282;DHT22;69586;51.890;-8.458;2024-03-17T05:04:58;14.60;69.00
80282;DHT22;69586;51.890;-8.458;2024-03-17T05:07:24;14.60;68.90
80282;DHT22;69586;51.890;-8.458;2024-03-17T05:09:50;14.60;68.70
80282;DHT22;69586;51.890;-8.458;2024-03-17T05:12:16;14.70;68.70
80282;DHT22;69586;51.890;-8.458;2024-03-17T05:14:42;14.70;68.60
80282;DHT22;69586;51.890;-8.458;2024-03-17T05:17:08;14.70;68.60
80282;DHT22;69586;51.890;-8.458;2024-03-17T05:19:33;14.70;68.60
80282;DHT22;69586;51.890;-8.458;2024-03-17T05:21:59;14.70;68.60
80282;DHT22;69586;51.890;-8.458;2024-03-17T05:24:25;14.70;68.50
80282;DHT22;69586;51.890;-8.458;2024-03-17T05:26:51;14.70;68.50
80282;DHT22;69586;51.890;-8.458;2024-03-17T05:29:17;14.70;68.40
80282;DHT22;69586;51.890;-8.458;2024-03-17T05:31:43;14.70;68.40
80282;DHT22;69586;51.890;-8.458;2024-03-17T05:34:09;14.70;68.30
80282;DHT22;69586;51.890;-8.458;2024-03-17T05:36:36;14.70;68.40
80282;DHT22;69586;51.890;-8.458;2024-03-17T05:39:02;14.70;68.50
80282;DHT22;69586;51.890;-8.458;2024-03-17T05:41:28;14.70;68.30
80282;DHT22;69586;51.890;-8.458;2024-03-17T05:43:54;14.60;68.40
80282;DHT22;69586;51.890;-8.458;2024-03-17T05:46:24;14.60;68.40
80282;DHT22;69586;51.890;-8.458;2024-03-17T05:48:51;14.60;68.30
80282;DHT22;69586;51.890;-8.458;2024-03-17T05:51:17;14.60;68.20
80282;DHT22;69586;51.890;-8.458;2024-03-17T05:53:43;14.60;68.30
80282;DHT22;69586;51.890;-8.458;2024-03-17T05:56:10;14.60;68.30
80282;DHT22;69586;51.890;-8.458;2024-03-17T05:58:39;14.60;68.10
80282;DHT22;69586;51.890;-8.458;2024-03-17T06:01:05;14.60;68.10
80282;DHT22;69586;51.890;-8.458;2024-03-17T06:03:35;14.60;68.00
80282;DHT22;69586;51.890;-8.458;2024-03-17T06:06:02;14.60;67.80
80282;DHT22;69586;51.890;-8.458;2024-03-17T06:08:29;14.60;67.80
80282;DHT22;69586;51.890;-8.458;2024-03-17T06:10:55;14.60;67.80
80282;DHT22;69586;51.890;-8.458;2024-03-17T06:13:26;14.60;67.70
80282;DHT22;69586;51.890;-8.458;2024-03-17T06:15:53;14.60;67.60
80282;DHT22;69586;51.890;-8.458;2024-03-17T06:18:19;14.60;67.50
80282;DHT22;69586;51.890;-8.458;2024-03-17T06:20:46;14.60;67.50
80282;DHT22;69586;51.890;-8.458;2024-03-17T06:23:14;14.60;67.50
80282;DHT22;69586;51.890;-8.458;2024-03-17T06:25:46;14.60;67.50
80282;DHT22;69586;51.890;-8.458;2024-03-17T06:28:14;14.60;67.20
80282;DHT22;69586;51.890;-8.458;2024-03-17T06:30:40;14.50;67.20
80282;DHT22;69586;51.890;-8.458;2024-03-17T06:33:06;14.50;67.20
80282;DHT22;69586;51.890;-8.458;2024-03-17T06:35:36;14.50;67.20
80282;DHT22;69586;51.890;-8.458;2024-03-17T06:38:02;14.50;67.20
80282;DHT22;69586;51.890;-8.458;2024-03-17T06:40:28;14.50;67.10
80282;DHT22;69586;51.890;-8.458;2024-03-17T06:42:54;14.50;67.20
80282;DHT22;69586;51.890;-8.458;2024-03-17T06:45:20;14.60;67.10
80282;DHT22;69586;51.890;-8.458;2024-03-17T06:47:46;14.60;67.20
80282;DHT22;69586;51.890;-8.458;2024-03-17T06:50:12;14.60;67.10
80282;DHT22;69586;51.890;-8.458;2024-03-17T06:52:38;14.60;67.10
80282;DHT22;69586;51.890;-8.458;2024-03-17T06:55:04;14.50;67.10
80282;DHT22;69586;51.890;-8.458;2024-03-17T06:57:32;14.50;67.20
80282;DHT22;69586;51.890;-8.458;2024-03-17T06:59:59;14.50;67.20
80282;DHT22;69586;51.890;-8.458;2024-03-17T07:02:25;14.50;67.20
80282;DHT22;69586;51.890;-8.458;2024-03-17T07:04:51;14.50;67.20
80282;DHT22;69586;51.890;-8.458;2024-03-17T07:07:16;14.50;67.20
80282;DHT22;69586;51.890;-8.458;2024-03-17T07:09:42;14.50;67.10
80282;DHT22;69586;51.890;-8.458;2024-03-17T07:12:10;14.40;67.20
80282;DHT22;69586;51.890;-8.458;2024-03-17T07:14:36;14.50;67.00
80282;DHT22;69586;51.890;-8.458;2024-03-17T07:17:04;14.50;66.90
80282;DHT22;69586;51.890;-8.458;2024-03-17T07:19:30;14.40;67.00
80282;DHT22;69586;51.890;-8.458;2024-03-17T07:21:57;14.40;67.10
80282;DHT22;69586;51.890;-8.458;2024-03-17T07:24:23;14.50;67.00
80282;DHT22;69586;51.890;-8.458;2024-03-17T07:26:49;14.50;66.90
80282;DHT22;69586;51.890;-8.458;2024-03-17T07:29:15;14.50;67.00
80282;DHT22;69586;51.890;-8.458;2024-03-17T07:31:41;14.50;67.00
80282;DHT22;69586;51.890;-8.458;2024-03-17T07:34:07;14.60;67.00
80282;DHT22;69586;51.890;-8.458;2024-03-17T07:36:32;14.60;66.80
80282;DHT22;69586;51.890;-8.458;2024-03-17T07:38:58;14.60;66.80
80282;DHT22;69586;51.890;-8.458;2024-03-17T07:41:24;14.60;66.50
80282;DHT22;69586;51.890;-8.458;2024-03-17T07:43:50;14.60;66.60
80282;DHT22;69586;51.890;-8.458;2024-03-17T07:46:16;14.60;66.70
80282;DHT22;69586;51.890;-8.458;2024-03-17T07:48:43;14.70;66.70
80282;DHT22;69586;51.890;-8.458;2024-03-17T07:51:11;14.80;66.60
80282;DHT22;69586;51.890;-8.458;2024-03-17T07:53:39;15.00;66.70
80282;DHT22;69586;51.890;-8.458;2024-03-17T07:56:09;15.10;66.40
80282;DHT22;69586;51.890;-8.458;2024-03-17T07:58:40;15.30;65.90
80282;DHT22;69586;51.890;-8.458;2024-03-17T08:01:08;15.50;65.50
80282;DHT22;69586;51.890;-8.458;2024-03-17T08:03:37;15.60;65.00
80282;DHT22;69586;51.890;-8.458;2024-03-17T08:06:07;15.60;64.50
80282;DHT22;69586;51.890;-8.458;2024-03-17T08:08:34;15.60;64.10
80282;DHT22;69586;51.890;-8.458;2024-03-17T08:11:00;15.60;64.00
80282;DHT22;69586;51.890;-8.458;2024-03-17T08:13:29;15.60;63.80
80282;DHT22;69586;51.890;-8.458;2024-03-17T08:16:07;15.60;64.00
80282;DHT22;69586;51.890;-8.458;2024-03-17T08:18:36;15.60;64.10
80282;DHT22;69586;51.890;-8.458;2024-03-17T08:21:02;15.60;64.00
80282;DHT22;69586;51.890;-8.458;2024-03-17T08:23:32;15.70;63.90
80282;DHT22;69586;51.890;-8.458;2024-03-17T08:26:00;15.80;63.90
80282;DHT22;69586;51.890;-8.458;2024-03-17T08:28:27;16.00;63.80
80282;DHT22;69586;51.890;-8.458;2024-03-17T08:30:58;16.10;63.10
80282;DHT22;69586;51.890;-8.458;2024-03-17T08:33:24;16.20;62.70
80282;DHT22;69586;51.890;-8.458;2024-03-17T08:36:00;16.40;63.00
80282;DHT22;69586;51.890;-8.458;2024-03-17T08:38:28;16.70;62.90
80282;DHT22;69586;51.890;-8.458;2024-03-17T08:41:02;16.90;61.90
80282;DHT22;69586;51.890;-8.458;2024-03-17T08:43:28;17.10;61.20
80282;DHT22;69586;51.890;-8.458;2024-03-17T08:45:57;17.20;60.20
80282;DHT22;69586;51.890;-8.458;2024-03-17T08:48:36;17.20;60.10
80282;DHT22;69586;51.890;-8.458;2024-03-17T08:51:03;17.10;59.90
80282;DHT22;69586;51.890;-8.458;2024-03-17T08:53:30;17.10;59.80
80282;DHT22;69586;51.890;-8.458;2024-03-17T08:55:57;17.00;59.90
80282;DHT22;69586;51.890;-8.458;2024-03-17T08:58:23;17.00;59.80
80282;DHT22;69586;51.890;-8.458;2024-03-17T09:00:49;17.00;59.90
80282;DHT22;69586;51.890;-8.458;2024-03-17T09:03:15;17.00;59.90
80282;DHT22;69586;51.890;-8.458;2024-03-17T09:05:46;17.00;60.00
80282;DHT22;69586;51.890;-8.458;2024-03-17T09:08:23;17.00;59.60
80282;DHT22;69586;51.890;-8.458;2024-03-17T09:10:50;17.00;59.40
80282;DHT22;69586;51.890;-8.458;2024-03-17T09:13:18;17.10;59.90
80282;DHT22;69586;51.890;-8.458;2024-03-17T09:15:58;17.30;59.70
80282;DHT22;69586;51.890;-8.458;2024-03-17T09:18:27;17.50;58.10
80282;DHT22;69586;51.890;-8.458;2024-03-17T09:21:01;17.60;59.10
80282;DHT22;69586;51.890;-8.458;2024-03-17T09:23:28;18.00;59.00
80282;DHT22;69586;51.890;-8.458;2024-03-17T09:26:00;18.60;58.70
80282;DHT22;69586;51.890;-8.458;2024-03-17T09:28:28;19.10;57.40
80282;DHT22;69586;51.890;-8.458;2024-03-17T09:30:55;19.60;56.60
80282;DHT22;69586;51.890;-8.458;2024-03-17T09:33:22;20.00;55.80
80282;DHT22;69586;51.890;-8.458;2024-03-17T09:35:55;20.30;54.50
80282;DHT22;69586;51.890;-8.458;2024-03-17T09:38:22;20.40;54.00
80282;DHT22;69586;51.890;-8.458;2024-03-17T09:40:48;20.50;53.20
80282;DHT22;69586;51.890;-8.458;2024-03-17T09:43:24;20.50;53.30
80282;DHT22;69586;51.890;-8.458;2024-03-17T09:45:51;20.60;52.80
80282;DHT22;69586;51.890;-8.458;2024-03-17T09:48:23;20.70;52.60
80282;DHT22;69586;51.890;-8.458;2024-03-17T09:50:50;20.80;52.70
80282;DHT22;69586;51.890;-8.458;2024-03-17T09:55:51;21.30;52.60
80282;DHT22;69586;51.890;-8.458;2024-03-17T09:58:18;21.50;52.40
80282;DHT22;69586;51.890;-8.458;2024-03-17T10:00:45;21.80;51.90
80282;DHT22;69586;51.890;-8.458;2024-03-17T10:03:12;22.10;51.20
80282;DHT22;69586;51.890;-8.458;2024-03-17T10:05:38;22.40;51.00
80282;DHT22;69586;51.890;-8.458;2024-03-17T10:08:04;22.70;50.30
80282;DHT22;69586;51.890;-8.458;2024-03-17T10:10:30;22.80;49.20
80282;DHT22;69586;51.890;-8.458;2024-03-17T10:12:56;22.90;49.00
80282;DHT22;69586;51.890;-8.458;2024-03-17T10:15:21;22.90;48.80
80282;DHT22;69586;51.890;-8.458;2024-03-17T10:17:49;22.90;48.20
80282;DHT22;69586;51.890;-8.458;2024-03-17T10:20:17;22.80;48.20
80282;DHT22;69586;51.890;-8.458;2024-03-17T10:23:12;22.60;48.20
80282;DHT22;69586;51.890;-8.458;2024-03-17T10:25:40;22.50;48.80
80282;DHT22;69586;51.890;-8.458;2024-03-17T10:28:13;22.50;49.30
80282;DHT22;69586;51.890;-8.458;2024-03-17T10:30:39;22.70;49.40
80282;DHT22;69586;51.890;-8.458;2024-03-17T10:33:06;22.80;49.70
80282;DHT22;69586;51.890;-8.458;2024-03-17T10:35:35;22.90;49.00
80282;DHT22;69586;51.890;-8.458;2024-03-17T10:38:04;22.80;48.40
80282;DHT22;69586;51.890;-8.458;2024-03-17T10:40:32;22.80;49.00
80282;DHT22;69586;51.890;-8.458;2024-03-17T10:43:05;23.00;49.00
80282;DHT22;69586;51.890;-8.458;2024-03-17T10:45:32;23.10;48.90
80282;DHT22;69586;51.890;-8.458;2024-03-17T10:48:08;23.30;48.70
80282;DHT22;69586;51.890;-8.458;2024-03-17T10:50:38;23.50;48.20
80282;DHT22;69586;51.890;-8.458;2024-03-17T10:53:05;23.60;48.10
80282;DHT22;69586;51.890;-8.458;2024-03-17T10:55:45;23.80;48.10
80282;DHT22;69586;51.890;-8.458;2024-03-17T10:58:35;24.00;47.50
80282;DHT22;69586;51.890;-8.458;2024-03-17T11:01:02;24.20;46.90
80282;DHT22;69586;51.890;-8.458;2024-03-17T11:03:32;24.20;46.90
80282;DHT22;69586;51.890;-8.458;2024-03-17T11:06:00;24.00;46.30
80282;DHT22;69586;51.890;-8.458;2024-03-17T11:08:31;24.00;46.10
80282;DHT22;69586;51.890;-8.458;2024-03-17T11:10:58;24.00;45.70
80282;DHT22;69586;51.890;-8.458;2024-03-17T11:13:28;24.20;46.20
80282;DHT22;69586;51.890;-8.458;2024-03-17T11:15:55;24.20;45.50
80282;DHT22;69586;51.890;-8.458;2024-03-17T11:21:07;24.20;45.00
80282;DHT22;69586;51.890;-8.458;2024-03-17T11:23:41;24.00;43.80
80282;DHT22;69586;51.890;-8.458;2024-03-17T11:26:07;23.90;44.50
80282;DHT22;69586;51.890;-8.458;2024-03-17T11:33:57;23.20;43.70
80282;DHT22;69586;51.890;-8.458;2024-03-17T11:38:57;22.90;45.50
80282;DHT22;69586;51.890;-8.458;2024-03-17T11:41:44;22.80;46.00
80282;DHT22;69586;51.890;-8.458;2024-03-17T11:46:57;22.80;46.10
80282;DHT22;69586;51.890;-8.458;2024-03-17T11:49:31;22.90;46.20
80282;DHT22;69586;51.890;-8.458;2024-03-17T11:52:04;22.90;46.10
80282;DHT22;69586;51.890;-8.458;2024-03-17T11:54:35;22.90;44.80
80282;DHT22;69586;51.890;-8.458;2024-03-17T11:57:10;22.70;44.70
80282;DHT22;69586;51.890;-8.458;2024-03-17T11:59:36;22.50;44.00
80282;DHT22;69586;51.890;-8.458;2024-03-17T12:02:20;22.20;44.40
80282;DHT22;69586;51.890;-8.458;2024-03-17T12:04:51;22.00;45.00
80282;DHT22;69586;51.890;-8.458;2024-03-17T12:07:18;21.90;45.90
80282;DHT22;69586;51.890;-8.458;2024-03-17T12:09:45;21.90;46.10
80282;DHT22;69586;51.890;-8.458;2024-03-17T12:12:21;21.90;46.60
80282;DHT22;69586;51.890;-8.458;2024-03-17T12:14:49;21.90;46.40
80282;DHT22;69586;51.890;-8.458;2024-03-17T12:17:21;21.90;46.70
80282;DHT22;69586;51.890;-8.458;2024-03-17T12:19:47;21.90;46.50
80282;DHT22;69586;51.890;-8.458;2024-03-17T12:22:18;21.90;45.90
80282;DHT22;69586;51.890;-8.458;2024-03-17T12:24:52;21.90;45.90
80282;DHT22;69586;51.890;-8.458;2024-03-17T12:27:26;21.80;46.30
80282;DHT22;69586;51.890;-8.458;2024-03-17T12:29:55;21.70;45.70
80282;DHT22;69586;51.890;-8.458;2024-03-17T12:32:23;21.70;45.50
80282;DHT22;69586;51.890;-8.458;2024-03-17T12:34:53;21.60;45.30
80282;DHT22;69586;51.890;-8.458;2024-03-17T12:37:20;21.50;44.70
80282;DHT22;69586;51.890;-8.458;2024-03-17T12:39:46;21.40;45.70
80282;DHT22;69586;51.890;-8.458;2024-03-17T12:42:15;21.30;46.10
80282;DHT22;69586;51.890;-8.458;2024-03-17T12:44:55;21.30;46.00
80282;DHT22;69586;51.890;-8.458;2024-03-17T12:47:23;21.30;46.20
80282;DHT22;69586;51.890;-8.458;2024-03-17T12:52:21;21.20;45.80
80282;DHT22;69586;51.890;-8.458;2024-03-17T12:55:07;21.20;45.70
80282;DHT22;69586;51.890;-8.458;2024-03-17T12:57:52;21.10;44.70
80282;DHT22;69586;51.890;-8.458;2024-03-17T13:00:37;21.10;46.00
80282;DHT22;69586;51.890;-8.458;2024-03-17T13:03:07;21.10;45.80
80282;DHT22;69586;51.890;-8.458;2024-03-17T13:05:36;21.10;45.60
80282;DHT22;69586;51.890;-8.458;2024-03-17T13:08:02;21.10;45.30
80282;DHT22;69586;51.890;-8.458;2024-03-17T13:10:29;21.00;45.60
80282;DHT22;69586;51.890;-8.458;2024-03-17T13:13:09;21.00;45.80
80282;DHT22;69586;51.890;-8.458;2024-03-17T13:15:35;21.00;45.80
80282;DHT22;69586;51.890;-8.458;2024-03-17T13:18:02;20.80;46.00
80282;DHT22;69586;51.890;-8.458;2024-03-17T13:20:30;20.80;45.90
80282;DHT22;69586;51.890;-8.458;2024-03-17T13:22:56;20.70;46.10
80282;DHT22;69586;51.890;-8.458;2024-03-17T13:25:24;20.70;46.10
80282;DHT22;69586;51.890;-8.458;2024-03-17T13:27:52;20.70;46.20
80282;DHT22;69586;51.890;-8.458;2024-03-17T13:30:19;20.60;46.50
80282;DHT22;69586;51.890;-8.458;2024-03-17T13:32:45;20.60;46.10
80282;DHT22;69586;51.890;-8.458;2024-03-17T13:35:18;20.50;46.30
80282;DHT22;69586;51.890;-8.458;2024-03-17T13:37:45;20.50;46.10
80282;DHT22;69586;51.890;-8.458;2024-03-17T13:40:12;20.40;46.20
80282;DHT22;69586;51.890;-8.458;2024-03-17T13:42:44;20.30;46.50
80282;DHT22;69586;51.890;-8.458;2024-03-17T13:45:11;20.30;46.50
80282;DHT22;69586;51.890;-8.458;2024-03-17T13:47:41;20.30;47.00
80282;DHT22;69586;51.890;-8.458;2024-03-17T13:50:07;20.30;46.80
80282;DHT22;69586;51.890;-8.458;2024-03-17T13:52:44;20.30;46.90
80282;DHT22;69586;51.890;-8.458;2024-03-17T13:58:00;20.20;46.70
80282;DHT22;69586;51.890;-8.458;2024-03-17T14:00:28;20.10;46.90
80282;DHT22;69586;51.890;-8.458;2024-03-17T14:02:54;20.10;47.40
80282;DHT22;69586;51.890;-8.458;2024-03-17T14:05:25;20.10;47.60
80282;DHT22;69586;51.890;-8.458;2024-03-17T14:07:52;20.10;47.10
80282;DHT22;69586;51.890;-8.458;2024-03-17T14:10:19;20.10;47.80
80282;DHT22;69586;51.890;-8.458;2024-03-17T14:12:45;20.10;47.10
80282;DHT22;69586;51.890;-8.458;2024-03-17T14:15:13;20.00;47.50
80282;DHT22;69586;51.890;-8.458;2024-03-17T14:17:45;20.00;47.50
80282;DHT22;69586;51.890;-8.458;2024-03-17T14:20:12;20.00;47.40
80282;DHT22;69586;51.890;-8.458;2024-03-17T14:22:42;20.00;47.20
80282;DHT22;69586;51.890;-8.458;2024-03-17T14:25:18;20.00;47.40
80282;DHT22;69586;51.890;-8.458;2024-03-17T14:27:44;20.00;47.70
80282;DHT22;69586;51.890;-8.458;2024-03-17T14:30:17;20.00;47.70
80282;DHT22;69586;51.890;-8.458;2024-03-17T14:32:43;19.90;48.10
80282;DHT22;69586;51.890;-8.458;2024-03-17T14:35:13;20.00;48.30
80282;DHT22;69586;51.890;-8.458;2024-03-17T14:37:39;20.00;48.20
80282;DHT22;69586;51.890;-8.458;2024-03-17T14:40:06;20.00;48.20
80282;DHT22;69586;51.890;-8.458;2024-03-17T14:42:39;20.00;47.90
80282;DHT22;69586;51.890;-8.458;2024-03-17T14:45:07;20.00;47.90
80282;DHT22;69586;51.890;-8.458;2024-03-17T14:47:33;20.00;48.00
80282;DHT22;69586;51.890;-8.458;2024-03-17T14:49:59;20.00;47.90
80282;DHT22;69586;51.890;-8.458;2024-03-17T14:52:25;19.90;47.50
80282;DHT22;69586;51.890;-8.458;2024-03-17T14:54:52;19.90;47.60
80282;DHT22;69586;51.890;-8.458;2024-03-17T14:57:19;19.90;47.70
80282;DHT22;69586;51.890;-8.458;2024-03-17T14:59:46;19.90;47.60
80282;DHT22;69586;51.890;-8.458;2024-03-17T15:02:12;19.70;47.50
80282;DHT22;69586;51.890;-8.458;2024-03-17T15:04:38;19.70;47.20
80282;DHT22;69586;51.890;-8.458;2024-03-17T15:07:03;19.60;47.60
80282;DHT22;69586;51.890;-8.458;2024-03-17T15:09:29;19.60;47.90
80282;DHT22;69586;51.890;-8.458;2024-03-17T15:11:55;19.50;47.40
80282;DHT22;69586;51.890;-8.458;2024-03-17T15:14:20;19.50;47.30
80282;DHT22;69586;51.890;-8.458;2024-03-17T15:16:46;19.50;47.40
80282;DHT22;69586;51.890;-8.458;2024-03-17T15:19:12;19.50;47.50
80282;DHT22;69586;51.890;-8.458;2024-03-17T15:21:38;19.50;47.80
80282;DHT22;69586;51.890;-8.458;2024-03-17T15:24:04;19.50;48.20
80282;DHT22;69586;51.890;-8.458;2024-03-17T15:26:30;19.50;47.80
80282;DHT22;69586;51.890;-8.458;2024-03-17T15:28:55;19.50;48.20
80282;DHT22;69586;51.890;-8.458;2024-03-17T15:31:23;19.40;48.10
80282;DHT22;69586;51.890;-8.458;2024-03-17T15:33:50;19.40;48.20
80282;DHT22;69586;51.890;-8.458;2024-03-17T15:36:17;19.30;48.30
80282;DHT22;69586;51.890;-8.458;2024-03-17T15:38:43;19.30;48.40
80282;DHT22;69586;51.890;-8.458;2024-03-17T15:41:09;19.20;48.80
80282;DHT22;69586;51.890;-8.458;2024-03-17T15:43:41;19.20;49.00